Terminal Aerodrome Forecast
Issued by NWS Twin Cities, MN

Home | Current Version | Previous Version | Graphics & Text | Print | Product List | Glossary On
Versions: 1 2 3 4 5 6 7 8 9 10 11 12 13 14 15 16
071
FTUS43 KMPX 161458 AAA
TAFSTC
TAF AMD
KSTC 161458Z 1615/1712 33012G18KT P6SM BKN025
     FM162300 32008KT P6SM SCT035
     FM170300 31004KT P6SM SKC=

USA.gov is the U.S. government's official web portal to all federal, state and local government web resources and services.